Time;durP1;ratioP1;P1;durP2;ratioP2;P2;SDS_P1;SDS_P2;PMS_P1;PMS_P2;Temp;Humidity;BMP_temperature;BMP_pressure;BME280_temperature;BME280_humidity;BME280_pressure;Samples;Min_cycle;Max_cycle;Signal;HPM_P1;HPM_P2
2022/05/25 00:01:08;;;;;;;0.33;0.23;;;;;;;;;;5074960;28;20031;-33
2022/05/25 00:03:34;;;;;;;1.20;0.30;;;;;;;;;;5054324;28;20877;-41
2022/05/25 00:05:59;;;;;;;1.75;0.43;;;;;;;;;;5073801;28;20043;-31
2022/05/25 00:08:24;;;;;;;0.38;0.20;;;;;;;;;;5076388;28;20051;-32
2022/05/25 00:10:50;;;;;;;0.32;0.20;;;;;;;;;;5075402;28;20617;-34
2022/05/25 00:13:15;;;;;;;0.40;0.30;;;;;;;;;;5073368;28;20027;-32
2022/05/25 00:15:40;;;;;;;3.25;0.52;;;;;;;;;;5073395;28;20281;-31
2022/05/25 00:18:05;;;;;;;0.50;0.30;;;;;;;;;;5073706;28;20445;-35
2022/05/25 00:20:31;;;;;;;0.20;0.20;;;;;;;;;;5071943;28;20857;-32
2022/05/25 00:22:56;;;;;;;0.60;0.20;;;;;;;;;;5072003;28;20024;-32
2022/05/25 00:25:27;;;;;;;0.55;0.40;;;;;;;;;;5057730;28;20024;-31
2022/05/25 00:27:53;;;;;;;1.63;0.30;;;;;;;;;;5083746;28;20039;-34
2022/05/25 00:30:18;;;;;;;0.70;0.40;;;;;;;;;;5077373;28;20567;-34
2022/05/25 00:32:43;;;;;;;1.38;0.30;;;;;;;;;;5074573;28;20106;-32
2022/05/25 00:35:09;;;;;;;0.28;0.20;;;;;;;;;;5073795;28;20050;-31
2022/05/25 00:37:34;;;;;;;0.63;0.30;;;;;;;;;;5073301;28;20046;-34
2022/05/25 00:40:00;;;;;;;0.43;0.30;;;;;;;;;;5072298;28;20142;-36
2022/05/25 00:42:25;;;;;;;0.43;0.20;;;;;;;;;;5071738;28;20055;-32
2022/05/25 00:44:51;;;;;;;0.32;0.30;;;;;;;;;;5071513;28;20031;-32
2022/05/25 00:47:17;;;;;;;0.30;0.20;;;;;;;;;;5072864;28;20081;-32
2022/05/25 00:49:42;;;;;;;1.33;0.40;;;;;;;;;;5055601;28;20020;-31
2022/05/25 00:52:11;;;;;;;0.25;0.20;;;;;;;;;;5055235;28;20035;-33
2022/05/25 00:54:37;;;;;;;0.28;0.20;;;;;;;;;;5075956;28;20200;-32
2022/05/25 00:57:07;;;;;;;0.55;0.20;;;;;;;;;;5054202;28;20024;-37
2022/05/25 00:59:33;;;;;;;1.15;0.35;;;;;;;;;;5052729;28;20040;-31
2022/05/25 01:01:58;;;;;;;0.30;0.25;;;;;;;;;;5054794;28;21612;-34
2022/05/25 01:04:24;;;;;;;1.13;0.30;;;;;;;;;;5072557;28;20021;-32
2022/05/25 01:06:52;;;;;;;0.77;0.30;;;;;;;;;;5074082;28;20023;-32
2022/05/25 01:09:21;;;;;;;1.25;0.30;;;;;;;;;;5077161;28;20028;-33
2022/05/25 01:11:49;;;;;;;0.45;0.30;;;;;;;;;;5059434;28;20036;-32
2022/05/25 01:14:42;;;;;;;0.17;0.17;;;;;;;;;;5074719;28;20040;-33
2022/05/25 01:17:16;;;;;;;1.63;0.22;;;;;;;;;;5067602;28;20036;-32
2022/05/25 01:19:41;;;;;;;0.30;0.20;;;;;;;;;;5072885;28;20200;-35
2022/05/25 01:22:12;;;;;;;0.97;0.20;;;;;;;;;;5078150;28;20830;-34
2022/05/25 01:24:46;;;;;;;0.00;0.00;;;;;;;;;;5075802;28;20265;-38
2022/05/25 01:27:12;;;;;;;1.35;0.30;;;;;;;;;;5078008;28;20085;-36
2022/05/25 01:29:49;;;;;;;0.50;0.20;;;;;;;;;;5079876;28;20024;-31
2022/05/25 01:32:19;;;;;;;0.73;0.32;;;;;;;;;;5080801;28;20059;-36
2022/05/25 01:34:44;;;;;;;2.53;0.20;;;;;;;;;;5057181;28;20429;-33
2022/05/25 01:37:38;;;;;;;0.70;0.30;;;;;;;;;;5075694;28;20031;-33
2022/05/25 01:40:06;;;;;;;0.77;0.30;;;;;;;;;;5050784;28;21088;-33
2022/05/25 01:42:34;;;;;;;1.67;0.38;;;;;;;;;;5081193;28;20028;-30
2022/05/25 01:45:01;;;;;;;0.52;0.15;;;;;;;;;;5078706;28;20048;-32
2022/05/25 01:47:26;;;;;;;0.50;0.20;;;;;;;;;;5058057;28;20142;-34
2022/05/25 01:49:54;;;;;;;0.20;0.20;;;;;;;;;;5063573;28;20030;-36
2022/05/25 01:52:27;;;;;;;0.30;0.20;;;;;;;;;;5060667;28;20020;-32
2022/05/25 01:54:56;;;;;;;0.45;0.20;;;;;;;;;;5080903;28;20051;-32
2022/05/25 01:57:23;;;;;;;0.30;0.20;;;;;;;;;;5060450;28;20081;-32
2022/05/25 01:59:48;;;;;;;0.40;0.20;;;;;;;;;;5061963;28;20024;-31
2022/05/25 02:04:57;;;;;;;1.10;0.38;;;;;;;;;;5080902;28;20027;-37
2022/05/25 02:07:41;;;;;;;0.10;0.10;;;;;;;;;;5082639;28;20023;-36
2022/05/25 02:10:06;;;;;;;0.38;0.17;;;;;;;;;;5065502;28;20043;-33
2022/05/25 02:12:40;;;;;;;0.63;0.22;;;;;;;;;;5081816;28;20783;-30
2022/05/25 02:15:20;;;;;;;0.45;0.20;;;;;;;;;;5081111;28;20168;-33
2022/05/25 02:17:54;;;;;;;0.75;0.30;;;;;;;;;;5078228;28;20020;-33
2022/05/25 02:20:38;;;;;;;0.50;0.20;;;;;;;;;;5085664;28;20073;-37
2022/05/25 02:23:36;;;;;;;0.30;0.10;;;;;;;;;;5084497;28;20020;-33
2022/05/25 02:26:24;;;;;;;2.17;0.40;;;;;;;;;;5040489;28;20063;-31
2022/05/25 02:28:57;;;;;;;0.55;0.30;;;;;;;;;;5074920;28;20039;-32
2022/05/25 02:31:23;;;;;;;0.47;0.15;;;;;;;;;;5063027;28;20073;-33
2022/05/25 02:33:49;;;;;;;1.42;0.20;;;;;;;;;;5059076;28;20023;-32
2022/05/25 02:36:14;;;;;;;0.85;0.25;;;;;;;;;;5056287;28;20035;-38
2022/05/25 02:38:40;;;;;;;0.55;0.20;;;;;;;;;;5055404;28;20080;-32
2022/05/25 02:41:09;;;;;;;0.43;0.20;;;;;;;;;;5055759;28;20020;-37
2022/05/25 02:43:35;;;;;;;0.32;0.20;;;;;;;;;;5077400;28;20023;-32
2022/05/25 02:46:01;;;;;;;0.35;0.20;;;;;;;;;;5080261;28;20103;-33
2022/05/25 02:48:26;;;;;;;0.88;0.20;;;;;;;;;;5074129;28;20037;-31
2022/05/25 02:50:51;;;;;;;1.77;0.40;;;;;;;;;;5073682;28;20028;-33
2022/05/25 02:53:16;;;;;;;0.40;0.20;;;;;;;;;;5073749;28;20293;-33
2022/05/25 02:55:42;;;;;;;0.10;0.10;;;;;;;;;;5072712;28;20028;-33
2022/05/25 02:58:07;;;;;;;0.23;0.10;;;;;;;;;;5075498;28;20032;-31
2022/05/25 03:00:32;;;;;;;0.33;0.20;;;;;;;;;;5077659;28;20285;-31
2022/05/25 03:02:57;;;;;;;0.45;0.20;;;;;;;;;;5070084;28;20269;-33
2022/05/25 03:05:22;;;;;;;0.30;0.20;;;;;;;;;;5069863;28;20020;-32
2022/05/25 03:07:48;;;;;;;0.82;0.20;;;;;;;;;;5076871;28;20480;-33
2022/05/25 03:10:13;;;;;;;0.37;0.13;;;;;;;;;;5070499;28;20495;-44
2022/05/25 03:12:38;;;;;;;0.20;0.15;;;;;;;;;;5076497;28;20289;-32
2022/05/25 03:15:03;;;;;;;0.30;0.20;;;;;;;;;;5075524;28;20032;-32
2022/05/25 03:17:29;;;;;;;0.15;0.15;;;;;;;;;;5071052;28;20023;-31
2022/05/25 03:19:54;;;;;;;0.10;0.10;;;;;;;;;;5069813;28;20047;-32
2022/05/25 03:22:20;;;;;;;0.45;0.25;;;;;;;;;;5077641;28;20990;-32
2022/05/25 03:24:45;;;;;;;0.68;0.30;;;;;;;;;;5073109;28;20054;-32
2022/05/25 03:27:10;;;;;;;1.05;0.30;;;;;;;;;;5071681;28;20043;-31
2022/05/25 03:29:36;;;;;;;0.70;0.10;;;;;;;;;;5073003;28;20035;-32
2022/05/25 03:32:01;;;;;;;0.30;0.20;;;;;;;;;;5073347;28;20316;-32
2022/05/25 03:34:26;;;;;;;0.95;0.30;;;;;;;;;;5072317;28;20281;-33
2022/05/25 03:36:54;;;;;;;1.50;0.28;;;;;;;;;;5072406;28;20406;-32
2022/05/25 03:39:20;;;;;;;1.83;0.30;;;;;;;;;;5075112;28;20026;-32
2022/05/25 03:41:45;;;;;;;0.20;0.10;;;;;;;;;;5080710;28;20023;-34
2022/05/25 03:44:10;;;;;;;0.67;0.30;;;;;;;;;;5057658;28;21017;-31
2022/05/25 03:46:37;;;;;;;0.98;0.20;;;;;;;;;;5060322;28;20270;-32
2022/05/25 03:49:02;;;;;;;0.22;0.10;;;;;;;;;;5074737;28;20033;-31
2022/05/25 03:51:27;;;;;;;0.10;0.10;;;;;;;;;;5078193;28;20027;-37
2022/05/25 03:53:52;;;;;;;0.10;0.10;;;;;;;;;;5073154;28;20032;-33
2022/05/25 03:56:18;;;;;;;0.97;0.20;;;;;;;;;;5076989;28;20323;-32
2022/05/25 03:58:43;;;;;;;0.52;0.20;;;;;;;;;;5077191;28;20405;-33
2022/05/25 04:01:08;;;;;;;0.20;0.20;;;;;;;;;;5083872;28;20057;-31
2022/05/25 04:03:33;;;;;;;1.20;0.25;;;;;;;;;;5079827;28;20042;-32
2022/05/25 04:05:59;;;;;;;2.60;0.25;;;;;;;;;;5079392;28;20027;-33
2022/05/25 04:08:24;;;;;;;0.20;0.20;;;;;;;;;;5077933;28;20020;-33
2022/05/25 04:10:49;;;;;;;2.08;0.20;;;;;;;;;;5079721;28;20171;-32
2022/05/25 04:13:16;;;;;;;0.50;0.20;;;;;;;;;;5080316;28;20066;-32
2022/05/25 04:15:41;;;;;;;1.13;0.20;;;;;;;;;;5076045;28;20986;-31
2022/05/25 04:18:07;;;;;;;1.42;0.20;;;;;;;;;;5075998;28;20039;-32
2022/05/25 04:20:32;;;;;;;1.17;0.20;;;;;;;;;;5077352;28;20522;-31
2022/05/25 04:22:57;;;;;;;0.75;0.30;;;;;;;;;;5079797;28;20192;-32
2022/05/25 04:25:23;;;;;;;0.80;0.35;;;;;;;;;;5076762;28;20105;-34
2022/05/25 04:27:49;;;;;;;0.30;0.10;;;;;;;;;;5077549;28;20034;-34
2022/05/25 04:30:17;;;;;;;0.57;0.50;;;;;;;;;;5076460;28;21094;-32
2022/05/25 04:32:42;;;;;;;0.20;0.20;;;;;;;;;;5058613;28;20929;-34
2022/05/25 04:35:08;;;;;;;1.45;0.28;;;;;;;;;;5072226;28;20042;-35
2022/05/25 04:40:18;;;;;;;0.47;0.20;;;;;;;;;;5076734;28;20098;-36
2022/05/25 04:42:45;;;;;;;0.10;0.10;;;;;;;;;;5077694;28;20104;-32
2022/05/25 04:45:10;;;;;;;0.30;0.28;;;;;;;;;;5081405;28;20024;-33
2022/05/25 04:47:37;;;;;;;1.05;0.30;;;;;;;;;;5079152;28;20020;-33
2022/05/25 04:50:02;;;;;;;0.15;0.10;;;;;;;;;;5080886;28;20035;-33
2022/05/25 04:52:27;;;;;;;1.45;0.20;;;;;;;;;;5082466;28;20017;-32
2022/05/25 04:54:52;;;;;;;0.20;0.20;;;;;;;;;;5073974;28;20024;-31
2022/05/25 04:57:22;;;;;;;0.10;0.10;;;;;;;;;;5079098;28;20039;-34
2022/05/25 04:59:51;;;;;;;1.15;0.20;;;;;;;;;;5082901;28;20747;-34
2022/05/25 05:02:16;;;;;;;0.85;0.20;;;;;;;;;;5081375;28;20115;-32
2022/05/25 05:04:41;;;;;;;0.30;0.20;;;;;;;;;;5083609;28;20030;-33
2022/05/25 05:07:06;;;;;;;0.28;0.20;;;;;;;;;;5084306;28;20023;-34
2022/05/25 05:09:33;;;;;;;1.03;0.20;;;;;;;;;;5082294;28;20062;-31
2022/05/25 05:11:58;;;;;;;0.10;0.10;;;;;;;;;;5084137;28;20343;-33
2022/05/25 05:14:23;;;;;;;0.30;0.20;;;;;;;;;;5087017;28;20127;-32
2022/05/25 05:16:54;;;;;;;0.43;0.20;;;;;;;;;;5084632;28;20298;-38
2022/05/25 05:19:19;;;;;;;0.25;0.20;;;;;;;;;;5089185;28;20032;-31
2022/05/25 05:21:45;;;;;;;0.20;0.20;;;;;;;;;;5086976;28;20050;-31
2022/05/25 05:24:10;;;;;;;0.30;0.20;;;;;;;;;;5084426;28;20020;-33
2022/05/25 05:26:36;;;;;;;0.10;0.10;;;;;;;;;;5084332;28;20028;-32
2022/05/25 05:29:01;;;;;;;0.73;0.20;;;;;;;;;;5083760;28;20073;-36
2022/05/25 05:31:27;;;;;;;0.98;0.10;;;;;;;;;;5076584;28;20384;-37
2022/05/25 05:33:52;;;;;;;0.20;0.10;;;;;;;;;;5076151;28;20104;-31
2022/05/25 05:36:18;;;;;;;0.57;0.20;;;;;;;;;;5077037;28;20325;-35
2022/05/25 05:38:49;;;;;;;0.80;0.10;;;;;;;;;;5059723;28;20119;-31
2022/05/25 05:41:14;;;;;;;0.30;0.20;;;;;;;;;;5076634;28;20478;-35
2022/05/25 05:43:39;;;;;;;0.20;0.20;;;;;;;;;;5077113;28;20024;-33
2022/05/25 05:46:06;;;;;;;1.38;0.20;;;;;;;;;;5076643;28;20035;-32
2022/05/25 05:48:31;;;;;;;1.20;0.20;;;;;;;;;;5058399;28;20133;-33
2022/05/25 05:50:56;;;;;;;0.35;0.30;;;;;;;;;;5056928;28;20570;-34
2022/05/25 05:53:24;;;;;;;0.85;0.20;;;;;;;;;;5075029;28;20027;-34
2022/05/25 05:55:49;;;;;;;0.77;0.20;;;;;;;;;;5080702;28;20047;-32
2022/05/25 05:58:15;;;;;;;0.90;0.20;;;;;;;;;;5080002;28;20130;-34
2022/05/25 06:00:40;;;;;;;1.80;0.20;;;;;;;;;;5081038;28;20104;-35
2022/05/25 06:03:05;;;;;;;1.20;0.17;;;;;;;;;;5077581;28;20111;-33
2022/05/25 06:05:31;;;;;;;0.55;0.20;;;;;;;;;;5080314;28;20031;-31
2022/05/25 06:07:56;;;;;;;0.17;0.10;;;;;;;;;;5079328;28;20769;-35
2022/05/25 06:10:21;;;;;;;0.57;0.10;;;;;;;;;;5083324;28;20066;-32
2022/05/25 06:12:47;;;;;;;1.55;0.20;;;;;;;;;;5075410;28;21511;-42
2022/05/25 06:20:40;;;;;;;0.80;0.35;;;;;;;;;;5081173;28;20050;-31
2022/05/25 06:23:05;;;;;;;0.45;0.20;;;;;;;;;;5075478;28;20762;-32
2022/05/25 06:25:30;;;;;;;0.57;0.20;;;;;;;;;;5077884;28;20028;-33
2022/05/25 06:27:56;;;;;;;2.65;0.50;;;;;;;;;;5079725;28;20023;-31
2022/05/25 06:30:21;;;;;;;1.45;0.50;;;;;;;;;;5082335;28;20012;-34
2022/05/25 06:32:46;;;;;;;0.82;0.20;;;;;;;;;;5078203;28;20031;-32
2022/05/25 06:35:13;;;;;;;4.78;0.50;;;;;;;;;;5080842;28;20028;-34
2022/05/25 06:37:38;;;;;;;4.30;0.65;;;;;;;;;;5084755;28;20019;-33
2022/05/25 06:40:04;;;;;;;4.88;0.88;;;;;;;;;;5075353;28;20028;-37
2022/05/25 06:42:29;;;;;;;4.53;0.85;;;;;;;;;;5073762;28;20024;-32
2022/05/25 06:44:54;;;;;;;5.80;1.13;;;;;;;;;;5076100;28;20027;-32
2022/05/25 06:47:19;;;;;;;4.45;1.17;;;;;;;;;;5071725;28;20053;-34
2022/05/25 06:49:45;;;;;;;2.65;0.80;;;;;;;;;;5077551;28;20103;-34
2022/05/25 06:52:10;;;;;;;4.22;0.80;;;;;;;;;;5075067;28;20395;-33
2022/05/25 06:54:35;;;;;;;5.45;0.75;;;;;;;;;;5079430;28;20082;-33
2022/05/25 06:57:01;;;;;;;4.32;0.98;;;;;;;;;;5076042;28;20031;-32
2022/05/25 06:59:26;;;;;;;3.72;0.63;;;;;;;;;;5079386;28;20028;-35
2022/05/25 07:01:51;;;;;;;1.88;0.70;;;;;;;;;;5078218;28;20028;-34
2022/05/25 07:04:16;;;;;;;2.00;0.60;;;;;;;;;;5073037;28;20016;-33
2022/05/25 07:06:41;;;;;;;2.40;0.90;;;;;;;;;;5071470;28;20043;-33
2022/05/25 07:09:07;;;;;;;4.38;0.90;;;;;;;;;;5071495;28;20137;-33
2022/05/25 07:11:33;;;;;;;2.47;0.73;;;;;;;;;;5077390;28;20273;-32
2022/05/25 07:13:59;;;;;;;2.58;0.77;;;;;;;;;;5075408;28;20020;-33
2022/05/25 07:16:24;;;;;;;3.72;1.15;;;;;;;;;;5077095;28;20028;-33
2022/05/25 07:18:50;;;;;;;2.58;0.90;;;;;;;;;;5071971;28;20024;-34
2022/05/25 07:21:16;;;;;;;2.42;0.88;;;;;;;;;;5076138;28;21046;-34
2022/05/25 07:23:41;;;;;;;4.57;0.90;;;;;;;;;;5078297;28;20020;-37
2022/05/25 07:26:06;;;;;;;6.15;0.80;;;;;;;;;;5072138;28;20042;-32
2022/05/25 07:28:33;;;;;;;3.65;1.20;;;;;;;;;;5058064;28;20019;-31
2022/05/25 07:31:00;;;;;;;6.60;1.10;;;;;;;;;;5074487;28;20062;-34
2022/05/25 07:33:25;;;;;;;2.33;0.70;;;;;;;;;;5080859;28;20030;-35
2022/05/25 07:35:50;;;;;;;1.80;0.65;;;;;;;;;;5059774;28;20490;-34
2022/05/25 07:38:16;;;;;;;7.18;0.65;;;;;;;;;;5077643;28;20536;-33
2022/05/25 07:40:41;;;;;;;5.30;0.90;;;;;;;;;;5067698;28;21303;-32
2022/05/25 07:43:08;;;;;;;4.15;1.00;;;;;;;;;;5053212;28;20028;-34
2022/05/25 07:45:35;;;;;;;1.92;0.70;;;;;;;;;;5057037;28;20023;-36
2022/05/25 07:48:00;;;;;;;1.50;0.60;;;;;;;;;;5076274;28;20957;-33
2022/05/25 07:50:26;;;;;;;4.10;0.60;;;;;;;;;;5076277;28;20015;-36
2022/05/25 07:52:52;;;;;;;1.75;0.88;;;;;;;;;;5058772;28;21689;-32
2022/05/25 07:55:17;;;;;;;0.55;0.45;;;;;;;;;;5072223;28;20019;-31
2022/05/25 07:57:42;;;;;;;2.88;0.98;;;;;;;;;;5070944;28;20026;-31
2022/05/25 08:00:08;;;;;;;2.20;0.90;;;;;;;;;;5072069;28;20059;-32
2022/05/25 08:08:03;;;;;;;3.17;0.77;;;;;;;;;;5073175;28;20053;-35
2022/05/25 08:10:28;;;;;;;4.20;0.93;;;;;;;;;;5057582;28;20028;-33
2022/05/25 08:12:55;;;;;;;3.05;0.95;;;;;;;;;;5071051;28;20032;-31
2022/05/25 08:15:20;;;;;;;2.00;0.70;;;;;;;;;;5057579;28;20023;-34
2022/05/25 08:17:45;;;;;;;3.95;1.30;;;;;;;;;;5068179;28;20450;-35
2022/05/25 08:20:11;;;;;;;3.72;1.33;;;;;;;;;;5068739;28;20028;-34
2022/05/25 08:22:37;;;;;;;5.70;1.13;;;;;;;;;;5075625;28;20043;-36
2022/05/25 08:25:02;;;;;;;4.22;1.17;;;;;;;;;;5074686;28;20027;-35
2022/05/25 08:27:27;;;;;;;7.25;1.55;;;;;;;;;;5082972;28;20573;-34
2022/05/25 08:29:53;;;;;;;5.50;1.48;;;;;;;;;;5074188;28;20016;-33
2022/05/25 08:32:18;;;;;;;4.10;1.45;;;;;;;;;;5074985;28;20033;-32
2022/05/25 08:34:43;;;;;;;4.88;1.60;;;;;;;;;;5076764;28;20032;-32
2022/05/25 08:37:23;;;;;;;6.20;2.10;;;;;;;;;;5071224;28;20044;-32
2022/05/25 08:39:49;;;;;;;4.25;1.75;;;;;;;;;;5072837;28;20744;-32
2022/05/25 08:42:16;;;;;;;8.32;2.35;;;;;;;;;;5073441;28;20028;-36
2022/05/25 08:44:42;;;;;;;5.53;2.05;;;;;;;;;;5068582;28;20031;-33
2022/05/25 08:47:07;;;;;;;9.60;2.15;;;;;;;;;;5068025;28;22671;-34
2022/05/25 08:49:33;;;;;;;3.60;1.85;;;;;;;;;;5053318;28;20028;-34
2022/05/25 08:51:58;;;;;;;4.72;2.08;;;;;;;;;;5075448;28;20015;-34
2022/05/25 08:54:24;;;;;;;6.40;1.85;;;;;;;;;;5063132;28;20241;-31
2022/05/25 08:56:53;;;;;;;6.85;2.30;;;;;;;;;;5076698;28;20153;-34
2022/05/25 08:59:23;;;;;;;4.55;1.90;;;;;;;;;;5077291;28;20020;-32
2022/05/25 09:01:55;;;;;;;7.80;2.22;;;;;;;;;;5072559;28;20069;-33
2022/05/25 09:04:29;;;;;;;6.25;1.88;;;;;;;;;;5053980;28;20152;-33
2022/05/25 09:07:06;;;;;;;7.45;1.95;;;;;;;;;;5074057;28;20122;-33
2022/05/25 09:09:39;;;;;;;8.48;2.20;;;;;;;;;;5077377;28;20026;-31
2022/05/25 09:12:09;;;;;;;5.57;2.03;;;;;;;;;;5070757;28;20062;-36
2022/05/25 09:14:37;;;;;;;5.03;1.83;;;;;;;;;;5040312;28;20027;-31
2022/05/25 09:17:04;;;;;;;4.20;1.90;;;;;;;;;;5054684;28;20286;-31
2022/05/25 09:19:31;;;;;;;4.57;1.90;;;;;;;;;;5078303;28;20032;-35
2022/05/25 09:22:17;;;;;;;9.35;2.42;;;;;;;;;;5078670;28;20046;-35
2022/05/25 09:24:42;;;;;;;11.95;1.58;;;;;;;;;;5057630;28;20020;-34
2022/05/25 09:27:08;;;;;;;4.72;1.00;;;;;;;;;;5078086;28;20038;-33
2022/05/25 09:29:33;;;;;;;3.03;1.10;;;;;;;;;;5062041;28;20080;-32
2022/05/25 09:31:59;;;;;;;4.40;1.20;;;;;;;;;;5085770;28;20077;-33
2022/05/25 09:34:29;;;;;;;2.15;0.90;;;;;;;;;;5063928;28;20262;-32
2022/05/25 09:36:56;;;;;;;2.78;0.88;;;;;;;;;;5064203;28;20607;-34
2022/05/25 09:39:21;;;;;;;4.95;1.13;;;;;;;;;;5063663;28;20069;-32
2022/05/25 09:41:47;;;;;;;2.33;0.95;;;;;;;;;;5083995;28;20027;-33
2022/05/25 09:44:15;;;;;;;1.63;1.05;;;;;;;;;;5082844;28;20106;-35
2022/05/25 09:46:45;;;;;;;4.60;1.20;;;;;;;;;;5086091;28;20031;-32
2022/05/25 09:49:15;;;;;;;7.00;1.00;;;;;;;;;;5065067;28;20016;-32
2022/05/25 09:51:43;;;;;;;4.00;1.08;;;;;;;;;;5080931;28;20059;-33
2022/05/25 09:54:13;;;;;;;1.60;0.77;;;;;;;;;;5082202;28;20011;-34
2022/05/25 09:56:39;;;;;;;3.17;1.08;;;;;;;;;;5063545;28;20044;-34
2022/05/25 09:59:06;;;;;;;1.67;0.80;;;;;;;;;;5061542;28;20031;-34
2022/05/25 10:01:52;;;;;;;2.17;0.75;;;;;;;;;;5078298;28;20032;-34
2022/05/25 10:04:33;;;;;;;3.60;1.05;;;;;;;;;;5061665;28;20044;-37
2022/05/25 10:06:58;;;;;;;2.72;1.15;;;;;;;;;;5064981;28;20027;-40
2022/05/25 10:09:24;;;;;;;4.90;0.98;;;;;;;;;;5064991;28;20031;-32
2022/05/25 10:11:50;;;;;;;2.80;0.80;;;;;;;;;;5072328;28;20016;-33
2022/05/25 10:14:22;;;;;;;2.47;1.05;;;;;;;;;;5085192;28;20111;-32
2022/05/25 10:16:47;;;;;;;4.68;1.33;;;;;;;;;;5085294;28;20088;-39
2022/05/25 10:19:14;;;;;;;4.45;0.80;;;;;;;;;;5060338;28;20023;-38
2022/05/25 10:21:40;;;;;;;6.45;0.95;;;;;;;;;;5082268;28;20022;-32
2022/05/25 10:24:16;;;;;;;2.95;1.10;;;;;;;;;;5059939;28;20032;-36
2022/05/25 10:26:48;;;;;;;1.70;0.82;;;;;;;;;;5062098;28;20438;-34
2022/05/25 10:36:45;;;;;;;4.53;0.82;;;;;;;;;;5083348;28;20106;-36
2022/05/25 10:37:55;;;;;;;3.10;0.75;;;;;;;;;;5058787;28;20060;-34
2022/05/25 10:40:21;;;;;;;2.75;0.70;;;;;;;;;;5059020;28;20033;-32
2022/05/25 10:42:46;;;;;;;1.55;0.63;;;;;;;;;;5072171;28;20027;-33
2022/05/25 10:45:13;;;;;;;2.65;0.90;;;;;;;;;;5076568;28;20028;-33
2022/05/25 10:47:47;;;;;;;1.77;0.88;;;;;;;;;;5051268;28;20034;-34
2022/05/25 10:50:38;;;;;;;2.25;1.08;;;;;;;;;;5075210;28;20034;-33
2022/05/25 10:53:04;;;;;;;3.85;1.45;;;;;;;;;;5064567;28;20036;-33
2022/05/25 10:55:34;;;;;;;2.87;1.10;;;;;;;;;;5071529;28;20391;-32
2022/05/25 10:58:06;;;;;;;3.60;0.90;;;;;;;;;;5053465;28;20285;-37
2022/05/25 11:01:10;;;;;;;4.55;1.08;;;;;;;;;;5052420;28;20032;-33
2022/05/25 11:03:35;;;;;;;3.10;1.00;;;;;;;;;;4992105;28;20053;-32
2022/05/25 11:06:21;;;;;;;3.03;0.88;;;;;;;;;;4992801;28;20116;-33
2022/05/25 11:08:49;;;;;;;5.47;1.00;;;;;;;;;;5046991;28;20354;-33
2022/05/25 11:11:21;;;;;;;3.70;0.90;;;;;;;;;;5073533;28;20103;-32
2022/05/25 11:13:51;;;;;;;3.75;0.80;;;;;;;;;;5059275;28;20525;-33
2022/05/25 11:16:35;;;;;;;3.28;0.90;;;;;;;;;;5057487;28;20118;-37
2022/05/25 11:19:00;;;;;;;6.50;0.98;;;;;;;;;;5073153;28;20137;-34
2022/05/25 11:21:36;;;;;;;4.43;0.97;;;;;;;;;;5083201;28;20573;-33
2022/05/25 11:24:20;;;;;;;6.38;0.80;;;;;;;;;;5078483;28;21153;-34
2022/05/25 11:26:45;;;;;;;4.10;0.65;;;;;;;;;;5077210;28;20413;-34
2022/05/25 11:29:23;;;;;;;3.90;1.10;;;;;;;;;;5083320;28;20020;-44
2022/05/25 11:32:03;;;;;;;2.35;0.93;;;;;;;;;;5082410;28;20030;-33
2022/05/25 11:34:47;;;;;;;2.42;0.93;;;;;;;;;;5065875;28;20016;-33
2022/05/25 11:37:13;;;;;;;3.90;1.02;;;;;;;;;;5081523;28;20055;-31
2022/05/25 11:39:45;;;;;;;3.17;0.63;;;;;;;;;;5076235;28;20110;-35
2022/05/25 11:42:20;;;;;;;2.60;0.57;;;;;;;;;;5070768;28;20692;-35
2022/05/25 11:44:56;;;;;;;1.77;0.57;;;;;;;;;;5079942;28;20039;-32
2022/05/25 11:47:24;;;;;;;2.97;1.48;;;;;;;;;;5058263;28;20030;-36
2022/05/25 11:50:11;;;;;;;3.55;1.02;;;;;;;;;;5073341;28;20046;-32
2022/05/25 11:52:42;;;;;;;2.70;0.80;;;;;;;;;;5075398;28;20583;-35
2022/05/25 11:55:27;;;;;;;2.55;0.60;;;;;;;;;;5071960;28;20186;-32
2022/05/25 11:58:01;;;;;;;4.35;0.80;;;;;;;;;;5077902;28;20042;-34
2022/05/25 12:00:41;;;;;;;2.80;0.45;;;;;;;;;;5072188;28;20741;-35
2022/05/25 12:03:25;;;;;;;8.50;2.05;;;;;;;;;;5055846;28;20034;-33
2022/05/25 12:06:09;;;;;;;27.90;3.30;;;;;;;;;;5077705;28;20030;-33
2022/05/25 12:08:48;;;;;;;23.60;4.57;;;;;;;;;;5077128;28;20027;-34
2022/05/25 12:11:17;;;;;;;22.80;4.25;;;;;;;;;;5053621;28;20530;-34
2022/05/25 12:13:46;;;;;;;28.63;3.53;;;;;;;;;;5076483;28;20020;-33
2022/05/25 12:16:20;;;;;;;25.98;2.70;;;;;;;;;;5059414;28;20186;-31
2022/05/25 12:18:47;;;;;;;10.38;1.90;;;;;;;;;;5076476;28;20028;-30
2022/05/25 12:21:20;;;;;;;13.82;2.95;;;;;;;;;;5059781;28;20039;-33
2022/05/25 12:23:46;;;;;;;14.20;2.95;;;;;;;;;;5078029;28;20082;-32
2022/05/25 12:26:26;;;;;;;17.38;2.60;;;;;;;;;;5081675;28;20015;-33
2022/05/25 12:28:52;;;;;;;8.25;1.67;;;;;;;;;;5084848;28;20070;-32
2022/05/25 12:31:18;;;;;;;11.43;2.00;;;;;;;;;;5059692;28;20098;-33
2022/05/25 12:33:45;;;;;;;11.93;1.98;;;;;;;;;;5078978;28;20219;-33
2022/05/25 12:36:10;;;;;;;7.38;2.00;;;;;;;;;;5061927;28;21790;-33
2022/05/25 12:38:36;;;;;;;8.85;2.05;;;;;;;;;;5042157;28;20057;-38
2022/05/25 12:41:21;;;;;;;5.03;1.70;;;;;;;;;;5066341;28;20053;-31
2022/05/25 12:43:46;;;;;;;7.53;1.65;;;;;;;;;;5067008;28;20027;-32
2022/05/25 12:48:56;;;;;;;6.43;1.17;;;;;;;;;;5052292;28;20293;-37
2022/05/25 12:51:31;;;;;;;5.78;1.40;;;;;;;;;;5063314;28;20028;-32
2022/05/25 12:53:57;;;;;;;3.72;1.20;;;;;;;;;;5048895;28;20034;-32
2022/05/25 12:56:25;;;;;;;2.63;1.02;;;;;;;;;;5063022;28;20974;-32
2022/05/25 12:58:54;;;;;;;2.03;0.80;;;;;;;;;;5079012;28;21667;-31
2022/05/25 13:01:19;;;;;;;2.53;1.08;;;;;;;;;;5059852;28;20036;-35
2022/05/25 13:03:44;;;;;;;5.93;1.27;;;;;;;;;;5079778;28;20027;-31
2022/05/25 13:06:10;;;;;;;8.77;0.93;;;;;;;;;;5082118;28;20843;-32
2022/05/25 13:08:47;;;;;;;3.50;0.98;;;;;;;;;;5078226;28;20545;-30
2022/05/25 13:11:31;;;;;;;8.35;1.02;;;;;;;;;;5077542;28;20556;-32
2022/05/25 13:13:57;;;;;;;1.70;0.73;;;;;;;;;;5079983;28;20020;-32
2022/05/25 13:16:40;;;;;;;4.97;1.00;;;;;;;;;;5082862;28;20094;-33
2022/05/25 13:19:37;;;;;;;5.38;0.95;;;;;;;;;;5080292;28;20024;-31
2022/05/25 13:22:22;;;;;;;6.05;1.20;;;;;;;;;;5081883;28;20030;-32
2022/05/25 13:25:05;;;;;;;2.63;1.05;;;;;;;;;;5080578;28;20959;-32
2022/05/25 13:27:53;;;;;;;3.03;0.98;;;;;;;;;;5081640;28;20027;-32
2022/05/25 13:30:18;;;;;;;7.45;1.27;;;;;;;;;;5084508;28;20059;-33
2022/05/25 13:32:53;;;;;;;6.23;1.23;;;;;;;;;;5082297;28;20098;-32
2022/05/25 13:35:21;;;;;;;6.25;1.13;;;;;;;;;;5084783;28;20293;-32
2022/05/25 13:37:47;;;;;;;3.90;1.00;;;;;;;;;;5082114;28;20024;-34
2022/05/25 13:40:12;;;;;;;2.38;0.93;;;;;;;;;;5064554;28;20036;-31
2022/05/25 13:42:41;;;;;;;1.55;0.75;;;;;;;;;;5079835;28;20023;-32
2022/05/25 13:45:07;;;;;;;3.45;1.15;;;;;;;;;;5061610;28;20089;-32
2022/05/25 13:47:32;;;;;;;2.88;1.00;;;;;;;;;;5060473;28;20031;-32
2022/05/25 13:50:00;;;;;;;2.80;0.83;;;;;;;;;;5078986;28;20036;-32
2022/05/25 13:52:26;;;;;;;1.40;0.80;;;;;;;;;;5078461;28;20477;-33
2022/05/25 13:54:54;;;;;;;3.15;0.85;;;;;;;;;;5045876;28;20107;-39
2022/05/25 13:57:29;;;;;;;3.05;1.08;;;;;;;;;;5051380;28;20039;-33
2022/05/25 13:59:54;;;;;;;2.67;0.90;;;;;;;;;;5055558;28;20027;-31
2022/05/25 14:02:29;;;;;;;1.42;0.65;;;;;;;;;;5055854;28;20040;-32
2022/05/25 14:04:59;;;;;;;2.38;0.70;;;;;;;;;;5060922;28;20031;-33
2022/05/25 14:07:27;;;;;;;1.33;0.68;;;;;;;;;;5057416;28;20107;-33
2022/05/25 14:12:37;;;;;;;1.95;1.00;;;;;;;;;;5054047;28;20534;-34
2022/05/25 14:15:02;;;;;;;1.03;0.60;;;;;;;;;;5061561;28;20520;-33
2022/05/25 14:17:30;;;;;;;3.03;0.80;;;;;;;;;;5062807;28;20345;-33
2022/05/25 14:19:57;;;;;;;3.70;0.75;;;;;;;;;;5055888;28;20023;-32
2022/05/25 14:22:23;;;;;;;1.77;0.80;;;;;;;;;;5057400;28;20026;-33
2022/05/25 14:24:49;;;;;;;2.72;0.95;;;;;;;;;;5053488;28;20337;-34
2022/05/25 14:27:50;;;;;;;3.20;0.90;;;;;;;;;;5048589;28;20096;-30
2022/05/25 14:30:22;;;;;;;2.92;0.90;;;;;;;;;;4979618;28;20029;-31
2022/05/25 14:32:47;;;;;;;;;;;;;;;;;;5042817;28;20125;-36
2022/05/25 14:35:12;;;;;;;4.63;0.85;;;;;;;;;;5061115;28;19971;-33
2022/05/25 14:37:38;;;;;;;2.40;0.80;;;;;;;;;;5039784;28;20035;-33
2022/05/25 14:40:05;;;;;;;1.70;0.70;;;;;;;;;;5057692;28;20020;-33
2022/05/25 14:42:30;;;;;;;1.58;0.70;;;;;;;;;;5060041;28;20103;-34
2022/05/25 14:44:56;;;;;;;2.28;0.75;;;;;;;;;;5054631;28;20027;-32
2022/05/25 14:47:36;;;;;;;5.03;0.90;;;;;;;;;;5040426;28;20027;-32
2022/05/25 14:50:01;;;;;;;1.30;0.70;;;;;;;;;;5038001;28;20038;-34
2022/05/25 14:52:27;;;;;;;1.70;0.65;;;;;;;;;;5062651;28;20019;-36
2022/05/25 14:54:59;;;;;;;1.77;1.00;;;;;;;;;;5073349;28;20016;-31
2022/05/25 14:57:24;;;;;;;2.70;0.80;;;;;;;;;;5089316;28;20036;-31
2022/05/25 14:59:50;;;;;;;1.45;0.60;;;;;;;;;;5070944;28;20020;-32
2022/05/25 15:02:44;;;;;;;2.80;0.70;;;;;;;;;;5089497;28;20066;-31
2022/05/25 15:05:38;;;;;;;1.10;0.40;;;;;;;;;;5072729;28;20024;-34
2022/05/25 15:08:04;;;;;;;4.47;0.85;;;;;;;;;;5074637;28;20039;-30
2022/05/25 15:10:31;;;;;;;2.00;0.70;;;;;;;;;;5089527;28;20070;-31
2022/05/25 15:12:56;;;;;;;1.25;0.52;;;;;;;;;;5070200;28;20522;-31
2022/05/25 15:18:29;;;;;;;0.75;0.47;;;;;;;;;;5085679;28;20124;-31
2022/05/25 15:20:54;;;;;;;2.28;0.75;;;;;;;;;;5065201;28;20525;-34
2022/05/25 15:23:41;;;;;;;2.97;0.80;;;;;;;;;;5086855;28;20024;-32